Results: 1997 Oktoberfest Run 5 KM

Oct. 19, 1997 - Waterloo, ON

Year Distance Age/Gender Filter
# Bib Name Time G GP Cat CP Pace City
1 1836 Rob Tyndall 0:15:14 M 1 M15-39 1 3:03
2 1812 Mark Dewan 0:15:20 M 2 M15-39 2 3:04
3 1600 Zeljko Sabol 0:15:46 M 3 M15-39 3 3:09
4 1452 Erin McClure 0:16:28 F 1 F15-39 1 3:18
5 1769 Allan Mazur 0:16:50 M 4 M15-39 4 3:22
6 1694 Jim Daley 0:16:52 M 5 M40-49 1 3:22
7 1798 Marcus Boyle 0:17:07 M 6 M15-39 5 3:25
8 1766 Ryne Melcher 0:17:25 M 7 M15-39 6 3:29
9 1621 Stephen Andrulis 0:18:01 M 8 M15-39 7 3:36
10 1572 Kevin Kuepfer 0:18:03 M 9 M15-39 8 3:37
11 1742 Jon Glinz 0:18:05 M 10 M15-39 9 3:37
12 1738 Eric Cresswell 0:18:15 M 11 M10-14 1 3:39
13 1794 Steven Anshuetz 0:18:17 M 12 M15-39 10 3:39
14 1331 Jeff McManus 0:18:30 M 13 M40-49 2 3:42
15 1643 Jim Buckley 0:18:31 M 14 M40-49 3 3:42
16 1351 Barney Feenstra 0:18:35 M 15 M40-49 4 3:43
17 1691 Linda Wilson 0:18:37 F 2 F15-39 2 3:43
18 1324 Holden Brean 0:18:40 M 16 M15-39 11 3:44
19 1605 Dave Grant 0:18:47 M 17 M15-39 12 3:45
20 1325 David Bristow 0:19:14 M 18 M15-39 13 3:51
21 1613 Chris Cousineau 0:19:18 M 19 M15-39 14 3:52
22 1786 Narda Philpott 0:19:20 F 3 F15-39 3 3:52
23 1772 Wayne Gagne 0:19:24 M 20 M40-49 5 3:53
24 1558 Dustin Doan 0:19:37 M 21 M15-39 15 3:55
25 1846 Nathan Riddle 0:19:37 M 22 M15-39 16 3:55
26 1584 Teo Yik Tee 0:19:46 M 23 M15-39 17 3:57
27 1369 Jason Hubbard 0:19:54 M 24 M15-39 18 3:59
28 1481 Graham Kent 0:19:55 M 25 M15-39 19 3:59
29 1795 Jeff Churchward 0:20:00 M 26 M40-49 6 4:00
30 1579 Ron Taylor 0:20:18 M 27 M40-49 7 4:04
31 1654 Jordan Hill 0:20:25 M 28 M10-14 2 4:05
32 1702 Kelly McManus 0:20:29 F 4 F15-39 4 4:06
33 1732 Trevor Scott 0:20:36 M 29 M10-14 3 4:07
34 1530 Geoffrey Takasaki 0:20:38 M 30 M10-14 4 4:08
35 1335 Phil Waller 0:20:40 M 31 M40-49 8 4:08
36 1776 Brian Bisson 0:20:44 M 32 M40-49 9 4:09
37 1840 Alan Ward 0:20:49 M 33 M40-49 10 4:10
38 1718 Connie Vera 0:20:51 F 5 F15-39 5 4:10
39 1301 John Wood 0:21:04 M 34 M15-39 20 4:13
40 1581 Monica Thomas 0:21:05 F 6 F40-49 1 4:13
41 1741 John Gorrie 0:21:15 M 35 M10-14 5 4:15
42 1831 Claudette Rooyakkers 0:21:15 F 7 F15-39 6 4:15
43 1580 Denise Thody 0:21:16 F 8 F15-39 7 4:15
44 1790 Theresa Edmonson 0:21:19 F 9 F15-39 8 4:16
45 1614 Kelly Dreisinger 0:21:27 F 10 F10-14 1 4:17
46 1573 Chi M Lim 0:21:33 M 36 M15-39 21 4:19
47 1642 Maddie Hobler 0:21:33 F 11 F15-39 9 4:19
48 1681 Courtney Ludwig 0:21:40 F 12 F10-14 2 4:20
49 1680 Cayley Ludwig 0:21:43 F 13 F10-14 3 4:21
50 1365 Tom Cosstick 0:21:43 M 37 M15-39 22 4:21
51 1364 Allan Colquhoun 0:21:44 M 38 M15-39 23 4:21
52 1628 Lisa Stafford 0:21:47 F 14 F15-39 10 4:21
53 1435 Chris O'Neill 0:21:52 M 39 M10-14 6 4:22
54 1586 Cheryl Turner 0:21:57 F 15 F15-39 11 4:23
55 1483 Patrick Erb 0:22:01 M 40 M15-39 24 4:24
56 1797 Demetre Foster 0:22:06 M 41 M10-14 7 4:25
57 1370 Jeff Lingard 0:22:10 M 42 M15-39 25 4:26
58 1788 Henry Haiser 0:22:13 M 43 M10-14 8 4:27
59 1497 Dan Schipper 0:22:26 M 44 M15-39 26 4:29
60 1807 Melissa Papaioannou 0:22:31 F 16 F15-39 12 4:30
61 1396 Patrick Etmanski 0:22:32 M 45 M15-39 27 4:30
62 1582 Bryan Walmsley 0:22:39 M 46 M10-14 9 4:32
63 1804 Andy Bott 0:22:44 M 47 M15-39 28 4:33
64 1438 Tyler Walker 0:22:47 M 48 M15-39 29 4:33
65 1616 Kevin Cheung 0:22:50 M 49 M15-39 30 4:34
66 1355 Jean Horne 0:22:57 F 17 F40-49 2 4:35
67 1629 Laurie Murray 0:22:58 F 18 F15-39 13 4:36
68 1606 Julie Glass 0:23:01 F 19 F15-39 14 4:36
69 1620 Albert Ashley 0:23:01 M 50 M15-39 31 4:36
70 1500 Sean Stuart 0:23:01 M 51 M15-39 32 4:36
71 1588 Mike Traynor 0:23:02 M 52 M15-39 33 4:36
72 1719 Luis Temporao 0:23:04 M 53 M15-39 34 4:37
73 1801 Roy Pavao 0:23:05 M 54 M15-39 35 4:37
74 214 David Howitt 0:23:08 M 55 M15-39 36 4:38
75 1817 Robert Lewis 0:23:09 M 56 M40-49 11 4:38
76 1374 Phillip McKee 0:23:11 M 57 M15-39 37 4:38
77 1750 Liz Wyatt 0:23:19 F 20 F15-39 15 4:40
78 1352 Judy Grimson 0:23:22 F 21 F40-49 3 4:40
79 1462 Jackie Mandziak 0:23:26 F 22 F40-49 4 4:41
80 1735 Bradley Brown 0:23:28 M 58 M15-39 38 4:42
81 1595 Gus MacDonald 0:23:29 M 59 M40-49 12 4:42
82 1802 Matt Aird 0:23:29 M 60 M10-14 10 4:42
83 1739 Adam Brenner 0:23:29 M 61 M10-14 11 4:42
84 1602 Colin Lawrence 0:23:30 M 62 M10-14 12 4:42
85 1767 Sara Pinder 0:23:30 F 23 F15-39 16 4:42
86 1740 Chris MacKinnon 0:23:31 M 63 M15-39 39 4:42
87 1813 Allison Adcoe 0:23:31 F 24 F15-39 17 4:42
88 1311 Kirstie Steip 0:23:36 F 25 F15-39 18 4:43
89 1731 Matt Hunter 0:23:38 M 64 M01-09 1 4:44
90 1730 Brian Hunter 0:23:39 M 65 M40-49 13 4:44
91 1461 Eva Reddington 0:23:29 F 26 F15-39 19 4:42
92 1839 Kelly Forster 0:23:41 F 27 F15-39 20 4:44
93 1493 Alec Marshall 0:23:42 M 66 M15-39 40 4:44
94 1589 Sarah Trimble 0:23:43 F 28 F15-39 21 4:45
95 1444 John Voll 0:23:45 M 67 M15-39 41 4:45
96 1437 Kristin Snyder 0:23:59 F 29 F15-39 22 4:48
97 1809 Richard Hoshino 0:24:00 M 68 M15-39 42 4:48
98 1469 Daniel Boeschenstein 0:24:01 M 69 M10-14 13 4:48
99 1505 John Halligan 0:24:02 M 70 M10-14 14 4:48
100 1503 Mark Anderton 0:24:02 M 71 M10-14 15 4:48
101 1779 Ryan Weir 0:24:04 M 72 M10-14 16 4:49
102 1473 Jan Zantinge 0:24:07 M 73 M10-14 17 4:49
103 1379 Brian Snooks 0:24:11 M 74 M15-39 43 4:50
104 1552 John Ariens 0:24:12 M 75 M40-49 14 4:50
105 1838 Kathleen Ogden 0:24:13 F 30 F15-39 23 4:51
106 1780 Aimee Sulpher 0:24:14 F 31 F10-14 4 4:51
107 1553 Brenda Bradley 0:24:15 F 32 F15-39 24 4:51
108 1737 Jen Blanchette 0:24:18 F 33 F15-39 25 4:52
109 1849 Raman Gupta 0:24:19 M 76 M15-39 44 4:52
110 1734 Mike Schmidt 0:24:19 M 77 M15-39 45 4:52
111 1665 Michael Andrulius 0:24:24 M 78 M10-14 18 4:53
112 1367 Mark Gatto 0:24:29 M 79 M15-39 46 4:54
113 1368 Jason Green 0:24:29 M 80 M15-39 47 4:54
114 1504 Ruth Demarte 0:24:31 F 34 F15-39 26 4:54
115 1560 Richard Kufske 0:24:33 M 81 M15-39 48 4:55
116 1561 Gord Dupuis 0:24:34 M 82 M40-49 15 4:55
117 1599 Frank Leung 0:24:35 M 83 M15-39 49 4:55
118 1751 Caroline Amyot 0:24:36 F 35 F15-39 27 4:55
119 1728 Kristin Baldwin 0:24:37 F 36 F10-14 5 4:55
120 1375 Peter Olijnyk 0:24:37 M 84 M15-39 50 4:55
121 1571 Cheryl Huehn 0:24:38 F 37 F15-39 28 4:56
122 1576 Robin Roberts 0:24:38 M 85 M40-49 16 4:56
123 1578 Ed Shrigley 0:24:39 M 86 M15-39 51 4:56
124 1302 Steve Becker 0:24:41 M 87 M15-39 52 4:56
125 1624 Vibeke Baerum 0:24:42 F 38 F15-39 29 4:56
126 1363 Tim Beyers 0:24:43 M 88 M15-39 53 4:57
127 935 Itai Danan 0:24:46 M 89 M15-39 54 4:57
128 1791 Matt Chandler 0:24:52 M 90 M10-14 19 4:58
129 1518 Tanya Doroslovac 0:24:53 F 39 F10-14 6 4:59
130 1453 Tina Jagas 0:24:54 F 40 F15-39 30 4:59
131 1585 Joe Reaburn 0:25:00 M 91 M40-49 17 5:00
132 1439 Julie Wolfe 0:25:03 F 41 F15-39 31 5:01
133 1704 Richard Bolton 0:25:05 M 92 M15-39 55 5:01
134 1436 Leanne Schildermans 0:25:06 F 42 F15-39 32 5:01
135 1496 Patrick Roppel 0:25:07 M 93 M15-39 56 5:01
136 1752 Gordon Nicholls 0:25:09 M 94 M40-49 18 5:02
137 1715 Michelle Galer 0:25:10 F 43 F15-39 33 5:02
138 1811 Ruth Stadelmayer 0:25:17 F 44 F15-39 34 5:03
139 1431 Gary Ayre 0:25:24 M 95 M40-49 19 5:05
140 1342 Christine Hudecki 0:25:26 F 45 F15-39 35 5:05
141 1626 Jillian Stafford 0:25:26 F 46 F10-14 7 5:05
142 1627 Kelly Stafford 0:25:26 F 47 F15-39 36 5:05
143 1460 Calvin Shaver 0:25:27 M 96 M40-49 20 5:05
144 1668 Fraser Potts 0:25:28 M 97 M10-14 20 5:06
145 1559 Christine Dupuis 0:25:30 F 48 F15-39 37 5:06
146 1443 Paul Ferreira 0:25:35 M 98 M15-39 57 5:07
147 1843 Kim Shillum 0:25:36 F 49 F15-39 38 5:07
148 1515 Lucy Cacace 0:25:36 F 50 F15-39 39 5:07
149 1359 Jordan Rudow 0:25:37 M 99 M10-14 21 5:07
150 1806 Bonnie Carpenter 0:25:37 F 51 F40-49 5 5:07
151 1557 Ben Doan 0:25:38 M 100 M40-49 21 5:08
152 1430 Barbara Ayre 0:25:39 F 52 F40-49 6 5:08
153 1308 Lesley Lackner 0:25:40 F 53 F15-39 40 5:08
154 1690 Julianna Clarke 0:25:41 F 54 F10-14 8 5:08
155 1304 Nick Dipardo 0:25:42 M 101 M40-49 22 5:08
156 1733 Nidhee Jadaja 0:25:47 F 55 F10-14 9 5:09
157 1513 Gerrie Baycroft 0:25:47 M 102 M40-49 23 5:09
158 1346 Cherie Reaburn 0:25:48 F 56 F40-49 7 5:10
159 1567 Peter Bishop 0:25:50 M 103 M10-14 22 5:10
160 1725 Susan Wagler 0:25:52 F 57 F40-49 8 5:10
161 1700 Mike Roeder 0:26:05 M 104 M10-14 23 5:13
162 1746 Chantelle Dixon 0:26:07 F 58 F15-39 41 5:13
163 1316 Debbi Drinkwater 0:26:07 F 59 F40-49 9 5:13
164 1347 Terry Steffler 0:26:08 F 60 F40-49 10 5:14
165 1332 Robert Steffler 0:26:08 M 105 M40-49 24 5:14
166 1639 Roy Turner 0:26:09 M 106 M40-49 25 5:14
167 1566 Michael Wonnacott 0:26:09 M 107 M15-39 58 5:14
168 1808 Mark Woods 0:26:11 M 108 M15-39 59 5:14
169 1696 Megan Daley 0:26:11 F 61 F10-14 10 5:14
170 1305 Pete Lighthall 0:26:12 M 109 M40-49 26 5:14
171 1509 Bruce Rodrigues 0:26:15 M 110 M15-39 60 5:15
172 1508 Jacqueline Pys 0:26:16 F 62 F15-39 42 5:15
173 1625 Kyle Skillman 0:26:21 M 111 M10-14 24 5:16
174 1785 Jonathon Kinsie 0:26:23 M 112 M01-09 2 5:17
175 1380 William Zabjek 0:26:24 M 113 M15-39 61 5:17
176 1568 Russell Blackport 0:26:26 M 114 M10-14 25 5:17
177 1562 Brad Hillier 0:26:26 M 115 M15-39 62 5:17
178 1787 Bert Denhartog 0:26:27 M 116 M15-39 63 5:17
179 1433 Jon Dunford 0:26:28 M 117 M15-39 64 5:18
180 1803 Peter Reist 0:26:29 M 118 M15-39 65 5:18
181 1693 Steven Sittler 0:26:29 M 119 M15-39 66 5:18
182 1622 Kyla Anderson 0:26:30 F 63 F15-39 43 5:18
183 1527 Joel Mieske 0:26:30 M 120 M10-14 26 5:18
184 1356 Melissa Moir 0:26:31 F 64 F15-39 44 5:18
185 1361 Casey Wall 0:26:31 M 121 M15-39 67 5:18
186 1701 Christina Rooney 0:26:36 F 65 F10-14 11 5:19
187 1417 Carla Rutledge 0:26:37 F 66 F15-39 45 5:19
188 1782 Robert Kinsie 0:26:44 M 122 M40-49 27 5:21
189 1789 Jeremy Vernelli 0:26:46 M 123 M15-39 68 5:21
190 1482 Mary Jane Lanteigne 0:26:46 F 67 F40-49 11 5:21
191 1477 Steve Racz 0:26:46 M 124 M40-49 28 5:21
192 1653 Ashley Hillier 0:26:48 F 68 F10-14 12 5:22
193 1784 Danielle Kinsie 0:26:52 F 69 F10-14 13 5:22
194 1475 Tara Puskas 0:26:54 F 70 F10-14 14 5:23
195 1641 Betty Pereira 0:26:55 F 71 F15-39 46 5:23
196 1640 Paula Ridge 0:26:57 F 72 F15-39 47 5:23
197 1442 Shawn Sinclair 0:26:59 M 125 M15-39 69 5:24
198 1781 Patrick Matlock 0:27:01 M 126 M40-49 29 5:24
199 1786 Narda Philpott 0:27:02 F 73 F15-39 48 5:24
200 1502 James Wallace 0:27:04 M 127 M15-39 70 5:25
201 1685 Danielle Olivier 0:27:07 F 74 F10-14 15 5:25
202 1479 Penny Marcus 0:27:09 F 75 F15-39 49 5:26
203 1555 Peter Cheeseman 0:27:12 M 128 M40-49 30 5:26
204 1596 Ron McCarville 0:27:13 M 129 M40-49 31 5:27
205 1703 Petra Bolton 0:27:14 F 76 F15-39 50 5:27
206 1601 Vicki Lawrence 0:27:14 F 77 F40-49 12 5:27
207 1320 Jordan Schmidt 0:27:16 M 130 M01-09 3 5:27
208 1330 Lloyd Schmidt 0:27:16 M 131 M15-39 71 5:27
209 1636 Sue Havitz 0:27:17 F 78 F40-49 13 5:27
210 1635 Mark Havitz 0:27:17 M 132 M40-49 32 5:27
211 1373 Tony Martins 0:27:21 M 133 M15-39 72 5:28
212 1683 Milne Oakes 0:27:26 M 134 M40-49 33 5:29
213 1684 Mary Lou Oakes 0:27:30 F 79 F40-49 14 5:30
214 1455 Christine Wasylyk 0:27:31 F 80 F40-49 15 5:30
215 1607 Caroline Gilbert 0:27:32 F 81 F15-39 51 5:30
216 1343 Gail Petrie 0:27:33 F 82 F15-39 52 5:31
217 1329 Richard Petrie 0:27:33 M 135 M15-39 73 5:31
218 1608 Jen Dunford 0:27:36 F 83 F15-39 53 5:31
219 1592 Lisa McPhee 0:27:37 F 84 F15-39 54 5:31
220 1835 Vivien Boyd 0:27:37 F 85 F40-49 16 5:31
221 1535 T.R. Burmingham 0:27:38 M 136 M10-14 27 5:32
222 1434 Patti Halliday 0:27:43 F 86 F15-39 55 5:33
223 1432 Melanie Bieman 0:27:44 F 87 F15-39 56 5:33
224 1421 Nick Sorochuk 0:27:47 M 137 M10-14 28 5:33
225 1387 James Bertoncello 0:27:47 M 138 M10-14 29 5:33
226 1312 Joanne Becker 0:27:48 F 88 F15-39 57 5:34
227 1837 Debbie Ming 0:27:49 F 89 F15-39 58 5:34
228 1353 Kathy Heard 0:27:50 F 90 F15-39 59 5:34
229 1456 Gossette Radlein 0:27:51 F 91 F40-49 17 5:34
230 1445 Rod Kane 0:28:04 M 139 M15-39 74 5:37
231 1470 Konrad Boeschenstein 0:28:05 M 140 M01-09 4 5:37
232 1783 Jane Kinsie 0:28:07 F 92 F40-49 18 5:37
233 1529 Whitney Schnarr 0:28:08 F 93 F10-14 16 5:38
234 1360 Lou Seguin 0:28:09 M 141 M15-39 75 5:38
235 1468 William Boeschenstein 0:28:09 M 142 M40-49 34 5:38
236 1842 Meghan Haehn 0:28:10 F 94 F15-39 60 5:38
237 1484 Derek Collins 0:28:12 M 143 M15-39 76 5:38
238 1634 Joshua Herbison 0:28:13 M 144 M01-09 5 5:39
239 1805 Anne Charters-Klaver 0:28:15 F 95 F40-49 19 5:39
240 1339 Cindy Gittins 0:28:19 F 96 F15-39 61 5:40
241 1591 Joshua Ritchie 0:28:21 M 145 M10-14 30 5:40
242 1350 Noel MacKay 0:28:22 M 146 M15-39 77 5:40
243 1458 Kathy Lewis 0:28:24 F 97 F40-49 20 5:41
244 1466 Valerie Goodfellow 0:28:25 F 98 F15-39 62 5:41
245 1563 Betty MacLean 0:28:27 F 99 F40-49 21 5:41
246 1637 Alison Calder 0:28:29 F 100 F15-39 63 5:42
247 1771 Susan Munro 0:28:32 F 101 F15-39 64 5:42
248 1454 Bev Drury 0:28:42 F 102 F15-39 65 5:44
249 1569 Renata Brett 0:28:44 F 103 F15-39 66 5:45
250 1834 Gary Gagne 0:28:45 M 147 M15-39 78 5:45
251 1490 Stephen Coulter 0:28:49 M 148 M15-39 79 5:46
252 1575 Manfred Peterson 0:28:51 M 149 M40-49 35 5:46
253 1763 Lisa Foerster 0:28:55 F 104 F15-39 67 5:47
254 1609 Sher Diciccio 0:28:58 F 105 F40-49 22 5:48
255 1523 Bobbi-Jo Marlatt 0:29:00 F 106 F10-14 17 5:48
256 1512 Gabrielle Vasarhelyi 0:29:00 F 107 F15-39 68 5:48
257 1506 Dan Ingoldsby 0:29:00 M 150 M15-39 80 5:48
258 1525 Dave Marlatt 0:29:01 M 151 M40-49 36 5:48
259 1583 Anna Whitlock 0:29:03 F 108 F10-14 18 5:49
260 1540 Amber Debruin 0:29:04 F 109 F10-14 19 5:49
261 1514 Melanie Bolton 0:29:04 F 110 F10-14 20 5:49
262 1611 Terry Cousineau 0:29:05 M 152 M40-49 37 5:49
263 1792 Kathryn Chandler 0:29:07 F 111 F40-49 23 5:49
264 1699 Matt Schuett 0:29:09 M 153 M15-39 81 5:50
265 1501 Mac Vinh 0:29:09 M 154 M15-39 82 5:50
266 1429 Joan Stewart 0:29:12 F 112 F40-49 24 5:50
267 1510 Jennifer Rodrigues 0:29:13 F 113 F15-39 69 5:51
268 1695 Wendy Daley 0:29:16 F 114 F40-49 25 5:51
269 1749 Paul Lobsinger 0:29:16 M 155 M15-39 83 5:51
270 1547 Lindsay Moir 0:29:17 F 115 F10-14 21 5:51
271 1754 Abby Habib 0:29:19 M 156 M40-49 38 5:52
272 1526 Mary McCutcheon 0:29:19 F 116 F10-14 22 5:52
273 1321 Daniel Swatridge 0:29:20 M 157 M01-09 6 5:52
274 1334 Stephen Swatridge 0:29:20 M 158 M40-49 39 5:52
275 1773 Jon Kaufman 0:29:21 M 159 M40-49 40 5:52
276 1612 Ben Cousineau 0:29:25 M 160 M15-39 84 5:53
277 1447 Christina Pawliszyn 0:29:26 F 117 F10-14 23 5:53
278 1744 Adam Dixon 0:29:26 M 161 M10-14 31 5:53
279 1414 Phillip Munz 0:29:26 M 162 M10-14 32 5:53
280 1313 Donna DiPardo 0:29:27 F 118 F40-49 26 5:53
281 1574 Paul McKone 0:29:32 M 163 M15-39 85 5:54
282 1604 Michele Groudin 0:29:39 F 119 F15-39 70 5:56
283 1720 Natasha Pribic 0:29:41 F 120 F15-39 71 5:56
284 1485 Janneth Canizares 0:29:42 F 121 F15-39 72 5:56
285 1818 Dianne Barnes 0:29:49 F 122 F15-39 73 5:58
286 1594 Michael McDonald 0:29:50 M 164 M01-09 7 5:58
287 1793 Stephanie Weston 0:29:51 F 123 F01-09 1 5:58
288 1593 Richard McDonald 0:29:51 M 165 M15-39 86 5:58
289 1446 Marcus Drury 0:29:53 M 166 M40-49 41 5:59
290 1546 Tiffany MacKinnon 0:29:54 F 124 F10-14 24 5:59
291 1551 Autumn Tuffin 0:29:54 F 125 F10-14 25 5:59
292 1617 Gregory Cartmell 0:29:54 M 167 M01-09 8 5:59
293 1322 Tim MacKay 0:29:57 M 168 M10-14 33 5:59
294 1999 Unknown Unknown 0:29:57 168 5:59
295 1610 Donna Cousineau 0:29:58 F 126 F40-49 27 6:00
296 1619 Alexandra Beveridge 0:29:59 F 127 F01-09 2 6:00
297 1310 Julie Walton 0:30:03 F 128 F15-39 74 6:01
298 1303 Gary Wehrle 0:30:04 M 169 M40-49 42 6:01
299 1707 Pat Lankveld 0:30:06 F 129 F15-39 75 6:01
300 1633 Jane Jewson 0:30:06 F 130 F15-39 76 6:01
301 1543 Ashley Gibson 0:30:20 F 131 F10-14 26 6:04
302 1655 Samantha Ingram 0:30:20 F 132 F10-14 27 6:04
303 1652 Teri Hetherington 0:30:20 F 133 F10-14 28 6:04
304 1631 Kathleen Kelly 0:30:27 F 134 F40-49 28 6:05
305 1300 Brett Kibbler 0:30:27 M 170 M10-14 34 6:05
306 1528 Susan Schnarr 0:30:31 F 135 F40-49 29 6:06
307 1397 Tony Faria 0:30:38 M 171 M15-39 87 6:08
308 1511 Susan Todd 0:30:40 F 136 F15-39 77 6:08
309 1810 Evan Shepherd 0:30:40 M 172 M10-14 35 6:08
310 1799 Judy Seyler 0:30:41 F 137 F40-49 30 6:08
311 1745 Karen Dixon 0:30:42 F 138 F15-39 78 6:08
312 1314 Joanne Schumacher 0:30:45 F 139 F40-49 31 6:09
313 1590 Patti Schumacher 0:30:48 F 140 F15-39 79 6:10
314 1344 Laurel Pedersen 0:30:56 F 141 F15-39 80 6:11
315 1570 Joy Geiger 0:30:59 F 142 F40-49 32 6:12
316 1548 Sara Naeimi 0:31:00 F 143 F10-14 29 6:12
317 1706 Ivan Gibski 0:31:09 M 173 M15-39 88 6:14
318 1710 Paula Rios 0:31:10 F 144 F15-39 81 6:14
319 1564 Beth Reyburn 0:31:14 F 145 F15-39 82 6:15
320 1814 Katherine MacKenzie 0:31:14 F 146 F15-39 83 6:15
321 1815 Alicia Fraser 0:31:23 F 147 F15-39 84 6:17
322 1487 Claudio Canizares 0:31:39 M 174 M10-14 36 6:20
323 1366 Kyle Doerksen 0:31:39 M 175 M15-39 89 6:20
324 1850 Kelly Mahony 0:31:43 F 148 F15-39 85 6:21
325 1519 Melissa Eccles 0:31:47 F 149 F10-14 30 6:21
326 1727 Kristin Harris 0:31:48 F 150 F10-14 31 6:22
327 1565 Gillian Shepherd 0:31:49 F 151 F15-39 86 6:22
328 280 Cathy Taylor 0:31:51 F 152 F15-39 87 6:22
329 1471 Ute Repple 0:31:56 F 153 F15-39 88 6:23
330 1598 Wai Yee Lui 0:32:07 F 154 F15-39 89 6:25
331 1603 Micah Herzog 0:32:07 M 176 M15-39 90 6:25
332 276 Barbara Maslanko 0:32:16 F 155 F15-39 90 6:27
333 1371 Ivan Luke 0:32:18 M 177 M15-39 91 6:28
334 1657 Kyle McDonald 0:32:22 M 178 M10-14 37 6:28
335 1337 Carly Schmidt 0:32:24 F 156 F10-14 32 6:29
336 1711 Elaine Thibodeau 0:32:27 F 157 F15-39 91 6:29
337 1729 Bryan Stavenow 0:32:36 M 179 M40-49 43 6:31
338 1673 Stephanie Carr 0:32:37 F 158 F10-14 33 6:31
339 1577 Dawna Saba 0:32:41 F 159 F40-49 33 6:32
340 1492 Amy Kim 0:32:45 F 160 F15-39 92 6:33
341 1488 Heather Anne Armitage 0:32:45 F 161 F15-39 93 6:33
342 1491 Nathan Fish 0:32:46 M 180 M15-39 92 6:33
343 1777 Chris Ellig 0:32:55 M 181 M01-09 9 6:35
344 1449 Orma Courtenay 0:32:58 F 162 F15-39 94 6:36
345 1465 Josey Juraschka 0:32:59 F 163 F15-39 95 6:36
346 1851 Erin Mahony 0:33:07 F 164 F15-39 96 6:37
347 1507 Taffy McLeod 0:33:11 F 165 F40-49 34 6:38
348 1714 Amy Blackmore 0:33:21 F 166 F10-14 34 6:40
349 1762 Lori Ziolkowski 0:33:28 F 167 F15-39 97 6:42
350 1448 Fiona Jones 0:33:29 F 168 F10-14 35 6:42
351 1778 Christine Shaw 0:33:29 F 169 F15-39 98 6:42
352 1394 Tyler Dombroski 0:33:30 M 182 M10-14 38 6:42
353 1649 Ben Gregory 0:33:33 M 183 M10-14 39 6:43
354 1476 Marjory Racz 0:33:34 F 170 F40-49 35 6:43
355 1832 Lauren Usher 0:33:35 F 171 F10-14 36 6:43
356 1659 Jessica Narejko 0:33:38 F 172 F10-14 37 6:44
357 1410 Emily Lehan 0:33:39 F 173 F10-14 38 6:44
358 1660 Lindsay Newman 0:33:52 F 174 F10-14 39 6:46
359 1445 Rod Kane 0:34:02 M 184 M15-39 93 6:48
360 1307 Lynda Demery 0:34:08 F 175 F15-39 99 6:50
361 1309 Susan Demery 0:34:09 F 176 F15-39 100 6:50
362 1644 Jordan Doherty 0:34:18 M 185 M01-09 10 6:52
363 1532 Conor Howitt 0:34:21 M 186 M10-14 40 6:52
364 1679 Kaitlin Kaufman 0:34:22 F 177 F10-14 40 6:52
365 1760 Stephanie Kling 0:34:24 F 178 F10-14 41 6:53
366 1386 Marco Baldasaro 0:34:24 M 187 M10-14 41 6:53
367 1317 Debbie MacDonald 0:34:25 F 179 F40-49 36 6:53
368 1451 Rhonda Flaherty 0:34:27 F 180 F15-39 101 6:53
369 1656 Meredith Jewson 0:34:27 F 181 F01-09 3 6:53
370 1630 Tim Jewson 0:34:34 M 188 M15-39 94 6:55
371 1666 Dua dHussein 0:34:35 F 182 F10-14 42 6:55
372 1389 Brandon Charbonneau 0:34:44 M 189 M10-14 42 6:57
373 1542 Mandy Dobson 0:35:02 F 183 F10-14 43 7:00
374 1318 Fiona Lighthall 0:35:05 F 184 F40-49 37 7:01
375 1550 Megan Sanderson 0:35:07 F 185 F10-14 44 7:01
376 1354 Denise Cundy 0:35:11 F 186 F15-39 102 7:02
377 1400 Paula Grominsky 0:35:11 F 187 F10-14 45 7:02
378 1405 Natalie Keiene 0:35:12 F 188 F10-14 46 7:02
379 1623 Katharine Vernelli 0:35:19 F 189 F10-14 47 7:04
380 1415 Jean-Paul Parades 0:35:26 M 190 M10-14 43 7:05
381 1717 Allie Service 0:35:29 F 190 F10-14 48 7:06
382 1775 Ashley Borman 0:35:31 F 191 F10-14 49 7:06
383 1661 Amy Sittler 0:35:42 F 192 F10-14 50 7:08
384 1651 Krista Grieve 0:35:43 F 193 F10-14 51 7:09
385 1692 Pamela Sittler 0:35:45 F 194 F40-49 38 7:09
386 1648 Brendon Goodmurphy 0:35:46 M 191 M10-14 44 7:09
387 1362 Melissa Wilkinson 0:35:59 F 195 F10-14 52 7:12
388 1743 Julia Dixon 0:36:02 F 196 F01-09 4 7:12
389 1486 Sara Canizares 0:36:02 F 197 F10-14 53 7:12
390 1708 Liam McColl 0:36:18 M 192 M01-09 11 7:16
391 1709 Mary McColl 0:36:19 F 198 F40-49 39 7:16
392 1427 Amy Cruickshank 0:36:22 F 199 F10-14 54 7:16
393 1426 Andrea Atkinson 0:36:22 F 200 F10-14 55 7:16
394 1517 Gwen Cross 0:36:30 F 201 F10-14 56 7:18
395 1816 Jennifer Kennedy 0:36:35 F 202 F15-39 103 7:19
396 1428 Erin Ledlow 0:36:37 F 203 F10-14 57 7:19
397 1425 Susan Allred 0:36:42 F 204 F10-14 58 7:20
398 1765 Stephanie Jean 0:36:44 F 205 F10-14 59 7:21
399 1686 Jessica Pelkey 0:36:58 F 206 F10-14 60 7:24
400 1698 Ghermay Habib 0:37:06 M 193 M10-14 45 7:25
401 1533 John-Paul Mitchell 0:37:15 M 194 M10-14 46 7:27
402 1662 Tara Stach 0:37:23 F 207 F10-14 61 7:29
403 1463 Grace Johnstone 0:37:29 F 208 F10-14 62 7:30
404 1464 Jennifer Chivers-Wilson 0:37:39 F 209 F40-49 40 7:32
405 1761 Graeme Johnstone 0:37:40 M 195 M10-14 47 7:32
406 1319 Justin Olivier 0:37:42 M 196 M01-09 12 7:32
407 1678 Joanna Gage 0:37:46 F 210 F10-14 63 7:33
408 1450 Barbara Pawliszyn 0:37:50 F 211 F15-39 104 7:34
409 1441 Michael Pawliszyn 0:37:54 M 197 M10-14 48 7:35
410 1820 Kristin Kaufman 0:37:56 F 212 F15-39 105 7:35
411 1467 Marilyn Greentree 0:37:57 F 213 F15-39 106 7:35
412 1440 Richard Pawliszyn 0:38:07 M 198 M01-09 13 7:37
413 1537 Tiffany Blamire 0:38:07 F 214 F10-14 64 7:37
414 1323 Aaron Waller 0:38:08 M 199 M10-14 49 7:38
415 1416 Oliver Parades 0:38:09 M 200 M10-14 50 7:38
416 1539 Dana Chmielak 0:38:15 F 215 F10-14 65 7:39
417 1336 Kate MacKay 0:38:15 F 216 F01-09 5 7:39
418 1541 Deanna Dobson 0:38:19 F 217 F10-14 66 7:40
419 1393 Mike Daly 0:38:25 M 201 M10-14 51 7:41
420 1615 Christin Dreisinger 0:38:30 F 218 F15-39 107 7:42
421 1688 Emma Sturrock 0:38:31 F 219 F10-14 67 7:42
422 1672 Beverly Carr 0:38:35 F 220 F40-49 41 7:43
423 1345 Gerdy MacKay 0:38:40 F 221 F15-39 108 7:44
424 1618 Linda Balckwell 0:38:40 F 222 F40-49 42 7:44
425 1388 Kait Burghardt 0:38:46 F 223 F10-14 68 7:45
426 1726 Jonathan Bickerton 0:38:56 M 202 M10-14 52 7:47
427 1423 Jennifer Voll 0:39:11 F 224 F10-14 69 7:50
428 1382 Justin Atkinson-Lindsay 0:39:13 M 203 M10-14 53 7:51
429 1408 Jessica Kuepfer 0:39:28 F 225 F10-14 70 7:54
430 1413 Rachel Miller 0:39:32 F 226 F10-14 71 7:54
431 1531 Nakesha Gooden 0:39:42 F 227 F10-14 72 7:56
432 1409 Meghan Laturney 0:39:43 F 228 F10-14 73 7:57
433 1587 Paul Sinnott 0:39:43 M 204 M40-49 44 7:57
434 1821 Bill Stortz 0:40:06 M 205 M15-39 95 8:01
435 1392 Kirby Coulter 0:40:55 F 229 F10-14 74 8:11
436 1419 Tricia Stedman 0:40:57 F 230 F10-14 75 8:11
437 1381 Paula Aguiar 0:41:03 F 231 F10-14 76 8:13
438 1418 Breanna Scott 0:41:04 F 232 F10-14 77 8:13
439 1664 Lindsay White 0:41:27 F 233 F10-14 78 8:17
440 1658 Meghan Montgomery 0:41:27 F 234 F10-14 79 8:17
441 1406 Kayleigh Keighan 0:41:45 F 235 F10-14 80 8:21
442 1398 Brenna Flynn 0:41:47 F 236 F10-14 81 8:21
443 1845 Jesse The 0:41:49 M 206 M15-39 96 8:22
444 1844 Cristiane The 0:41:50 F 237 F15-39 109 8:22
445 1677 Regis Dudley 0:41:53 F 238 F10-14 82 8:23
446 1800 Margaret Looker 0:41:54 F 239 F10-14 83 8:23
447 1667 Caily McQuay 0:42:11 F 240 F10-14 84 8:26
448 1689 Emily Wasylycia 0:42:11 F 241 F10-14 85 8:26
449 1480 Patricia Kainu 0:43:34 F 242 F40-49 43 8:43
450 1522 Debbie Marlatt 0:44:25 F 243 F01-09 6 8:53
451 1524 Carol Marlatt 0:44:32 F 244 F40-49 44 8:54
452 1377 Michelle Robinson 0:44:43 F 245 F15-39 110 8:57
453 1534 Alicia Thomson 0:44:43 F 246 F10-14 86 8:57
454 1402 Jessica Hanson 0:45:09 F 247 F10-14 87 9:02
455 1647 Tara Godglick 0:45:10 F 248 F10-14 88 9:02
456 1663 Helen Stubbs 0:45:19 F 249 F10-14 89 9:04
457 1516 Stephanie Chiasson-Jamie 0:45:23 F 250 F10-14 90 9:05
458 1597 Carol MacDonald 0:46:09 F 251 F40-49 45 9:14
459 1650 Steven Gregory 0:46:23 M 207 M01-09 14 9:17
460 1549 Corey O'Brien 0:46:26 M 208 M10-14 54 9:17
461 1538 Sarah Breen 0:46:33 F 252 F10-14 91 9:19
462 1403 Kim Hendry 0:46:59 F 253 F10-14 92 9:24
463 1420 Jessica Stevens 0:47:00 F 254 F10-14 93 9:24
464 1385 Domini Baldasaro 0:47:02 M 209 M10-14 55 9:24
465 1378 Colin Snell 0:47:03 M 210 M15-39 97 9:25
466 1376 Lori Risebrough 0:47:03 F 255 F15-39 111 9:25
467 1372 Peter Magolon 0:47:32 M 211 M15-39 98 9:30
468 1755 Charlie Witzel 0:47:33 M 212 M10-14 56 9:31
469 1759 Lindsay Seegmiller 0:47:35 F 256 F10-14 94 9:31
470 1758 Geoffrey Seegmiller 0:47:36 M 213 M01-09 15 9:31
471 1424 Jennifer Willson 0:47:37 F 257 F10-14 95 9:31
472 1383 Alicia Bach 0:47:37 F 258 F10-14 96 9:31
473 1747 Breanne Kibbler 0:48:57 F 259 F10-14 97 9:47
474 1422 Cynthia Stroeder 0:48:58 F 260 F10-14 98 9:48
475 940 Lloyd Wright 0:49:01 M 214 M40-49 45 9:48
476 1774 Judy Kaufman 0:49:43 F 261 F40-49 46 9:57
477 1764 Beatriz Jean 0:50:24 F 262 F40-49 47 10:05
478 1823 Daniel Anderson 0:50:25 M 215 M01-09 16 10:05
479 1822 Anne-Catherine Jean 0:50:26 M 216 M15-39 99 10:05
480 1675 Sarah Drost 0:50:31 F 263 F10-14 99 10:06
481 1676 Rachel Drost 0:50:35 F 264 F10-14 100 10:07
482 1669 Bettina Rampelt 0:50:44 F 265 F10-14 101 10:09
483 1670 Friedrich Rampelt 0:50:45 M 217 M40-49 46 10:09
484 1457 Elizabeth Kocher 0:50:53 F 266 F40-49 48 10:11
485 1459 Mary Coulson 0:50:54 F 267 F40-49 49 10:11
486 1472 Elinor Zantinge 0:50:55 F 268 F01-09 7 10:11
487 1474 Laurie Zantinge 0:51:11 F 269 F40-49 50 10:14
488 1358 Bailey Rudow 0:51:13 F 270 F10-14 102 10:15
489 1357 Alexander Rudow 0:51:13 M 218 M10-14 57 10:15
490 1390 Danny Coulter 0:52:58 M 219 M40-49 47 10:36
491 1391 Franny Coulter 0:53:00 F 271 F40-49 51 10:36
492 1671 Ponthor Vang 0:53:02 F 272 F10-14 103 10:36
493 1520 Shujath Khan 0:53:07 F 273 F10-14 104 10:37
494 900 Patricia Vickers 0:53:55 F 274 F15-39 112 10:47
495 1721 Ryan Blue 0:53:57 M 220 M15-39 100 10:47
496 1722 Bethany Pollock 0:53:57 F 275 F15-39 113 10:47
497 1723 Cathie McAvoy 0:53:58 F 276 F15-39 114 10:48
498 1724 Trevor Gilmore 0:54:10 M 221 M15-39 101 10:50
499 1674 Lisa Drost 0:54:11 F 277 F40-49 52 10:50
500 1687 Marnie Reynolds 0:54:15 F 278 F40-49 53 10:51
501 1412 Mark Meinzinger 0:54:15 M 222 M10-14 58 10:51
502 1757 Nora Seegmiller 0:54:30 F 279 F01-09 8 10:54

Results © 1978-2017. Not for unauthorized commercial reproduction. For more information, to report an error, or to update your member profile, contact results@runwaterloo.com.